JBU516 TDPD-KJFK
Flight info
| Callsign | JBU516 |
|---|---|
| Flight time | N/A |
| Altitude | 34000 |
| Route | KAROT1 PPR DCT ELOPO Y355 SLUGO/M079F340 DCT PRCHA L456 MEGGG/M079F360 L456 DARUX L459 SAVIK/N0454F360 DCT YAALE/N0450F370 Y495 MOUGH/N0453F360 Y495 CAMRN |
| Aircraft | A321/M-SDE3FGHIRWY/LB1 |
Departure
| Time | 2026-04-19 18:32 |
|---|---|
| Airport | Douglas-Charles Airport (TDPD) |
Arrival
| Time | N/A |
|---|---|
| Airport | John F. Kennedy International Airport (KJFK) |
| Time | Latitude | Longitude | Altitude | Speed | Heading |
|---|---|---|---|---|---|
| 2026-04-19 18:06 | 15.54622 | -61.29961 | 52 ft | 0 kts | 249° |
| 2026-04-19 18:28 | 15.54622 | -61.30014 | 52 ft | 15 kts | 287° |
| 2026-04-19 18:29 | 15.54656 | -61.30126 | 56 ft | 16 kts | 266° |
| 2026-04-19 18:29 | 15.54627 | -61.30229 | 59 ft | 14 kts | 249° |
| 2026-04-19 18:29 | 15.54594 | -61.30321 | 60 ft | 15 kts | 250° |
| 2026-04-19 18:29 | 15.54553 | -61.30437 | 66 ft | 19 kts | 250° |
| 2026-04-19 18:30 | 15.54501 | -61.30581 | 67 ft | 23 kts | 250° |
| 2026-04-19 18:30 | 15.54442 | -61.30747 | 88 ft | 25 kts | 249° |
| 2026-04-19 18:30 | 15.54383 | -61.30875 | 94 ft | 10 kts | 260° |
| 2026-04-19 18:30 | 15.54397 | -61.30876 | 92 ft | 3 kts | 82° |
| 2026-04-19 18:31 | 15.54401 | -61.30864 | 90 ft | 1 kts | 68° |
| 2026-04-19 18:31 | 15.54402 | -61.30862 | 91 ft | 2 kts | 68° |
| 2026-04-19 18:31 | 15.54465 | -61.30682 | 82 ft | 65 kts | 70° |
| 2026-04-19 18:31 | 15.54706 | -61.30005 | 47 ft | 132 kts | 70° |
| 2026-04-19 18:32 | 15.55070 | -61.29008 | 484 ft | 147 kts | 69° |
| 2026-04-19 18:32 | 15.55446 | -61.28015 | 1096 ft | 150 kts | 71° |
| 2026-04-19 18:32 | 15.55825 | -61.26963 | 1605 ft | 164 kts | 71° |
| 2026-04-19 18:32 | 15.56229 | -61.25801 | 2114 ft | 175 kts | 71° |
| 2026-04-19 18:33 | 15.56662 | -61.24548 | 2387 ft | 195 kts | 72° |
| 2026-04-19 18:33 | 15.57150 | -61.23141 | 2583 ft | 220 kts | 71° |
| 2026-04-19 18:33 | 15.57812 | -61.21622 | 2868 ft | 244 kts | 54° |
| 2026-04-19 18:33 | 15.59187 | -61.20532 | 3433 ft | 258 kts | 25° |
| 2026-04-19 18:34 | 15.60878 | -61.19869 | 4150 ft | 262 kts | 22° |
| 2026-04-19 18:34 | 15.62601 | -61.19215 | 4859 ft | 265 kts | 22° |
| 2026-04-19 18:34 | 15.64357 | -61.18549 | 5114 ft | 271 kts | 21° |
| 2026-04-19 18:34 | 15.66088 | -61.17892 | 5009 ft | 268 kts | 22° |
| 2026-04-19 18:35 | 15.67846 | -61.17247 | 4982 ft | 269 kts | 18° |
| 2026-04-19 18:35 | 15.69706 | -61.17016 | 4961 ft | 272 kts | 1° |
| 2026-04-19 18:35 | 15.71579 | -61.17397 | 5147 ft | 281 kts | 340° |
| 2026-04-19 18:35 | 15.73302 | -61.18365 | 5935 ft | 283 kts | 329° |
| 2026-04-19 18:36 | 15.74961 | -61.19475 | 6676 ft | 284 kts | 329° |
| 2026-04-19 18:36 | 15.76632 | -61.20588 | 7364 ft | 286 kts | 328° |
| 2026-04-19 18:36 | 15.78313 | -61.21706 | 8068 ft | 287 kts | 328° |
| 2026-04-19 18:36 | 15.80000 | -61.22828 | 8758 ft | 288 kts | 327° |
| 2026-04-19 18:37 | 15.81693 | -61.23956 | 9454 ft | 289 kts | 326° |
| 2026-04-19 18:37 | 15.83388 | -61.25088 | 10102 ft | 290 kts | 326° |
| 2026-04-19 18:37 | 15.85124 | -61.26250 | 10369 ft | 307 kts | 326° |
| 2026-04-19 18:37 | 15.86979 | -61.27493 | 10497 ft | 327 kts | 326° |
| 2026-04-19 18:38 | 15.88948 | -61.28813 | 10614 ft | 346 kts | 326° |
| 2026-04-19 18:38 | 15.91022 | -61.30202 | 10733 ft | 364 kts | 327° |
| 2026-04-19 18:38 | 15.93183 | -61.31646 | 11089 ft | 372 kts | 326° |
| 2026-04-19 18:38 | 15.95370 | -61.33108 | 11580 ft | 376 kts | 326° |
| 2026-04-19 18:39 | 15.97581 | -61.34591 | 12089 ft | 380 kts | 326° |
| 2026-04-19 18:39 | 15.99817 | -61.36091 | 12607 ft | 383 kts | 326° |
| 2026-04-19 18:39 | 16.02057 | -61.37595 | 13158 ft | 385 kts | 326° |
| 2026-04-19 18:39 | 16.04315 | -61.39106 | 13713 ft | 387 kts | 327° |
| 2026-04-19 18:40 | 16.06564 | -61.40610 | 14161 ft | 391 kts | 326° |
| 2026-04-19 18:40 | 16.08854 | -61.42146 | 14632 ft | 394 kts | 326° |